Time;durP1;ratioP1;P1;durP2;ratioP2;P2;SDS_P1;SDS_P2;PMS_P1;PMS_P2;Temp;Humidity;BMP_temperature;BMP_pressure;BME280_temperature;BME280_humidity;BME280_pressure;Samples;Min_cycle;Max_cycle;Signal;HPM_P1;HPM_P2
2022/09/19 00:01:15;;;;;;;;;;;24.60;51.70;;;;;;1595438;73;1494;-72
2022/09/19 00:03:17;;;;;;;;;;;24.70;51.90;;;;;;1591137;73;730;-70
2022/09/19 00:05:18;;;;;;;;;;;24.60;51.80;;;;;;1584932;73;1169;-71
2022/09/19 00:07:21;;;;;;;;;;;24.60;51.80;;;;;;1595806;73;784;-71
2022/09/19 00:09:24;;;;;;;;;;;24.60;51.80;;;;;;1607852;73;727;-69
2022/09/19 00:11:26;;;;;;;;;;;24.70;51.90;;;;;;1594348;73;1641;-70
2022/09/19 00:13:28;;;;;;;;;;;24.70;51.80;;;;;;1595665;73;781;-69
2022/09/19 00:15:32;;;;;;;;;;;24.70;51.80;;;;;;1595661;73;1594;-68
2022/09/19 00:17:34;;;;;;;;;;;24.60;51.70;;;;;;1595162;73;1913;-71
2022/09/19 00:19:37;;;;;;;;;;;24.60;51.70;;;;;;1585507;73;785;-70
2022/09/19 00:21:40;;;;;;;;;;;24.60;51.70;;;;;;1611693;73;698;-70
2022/09/19 00:26:03;;;;;;;;;;;24.60;51.70;;;;;;1593469;73;1626;-70
2022/09/19 00:28:05;;;;;;;;;;;24.60;51.70;;;;;;1588755;73;730;-71
2022/09/19 00:30:07;;;;;;;;;;;24.60;51.80;;;;;;1599756;73;1301;-70
2022/09/19 00:32:14;;;;;;;;;;;24.60;51.80;;;;;;1597672;73;769;-71
2022/09/19 00:34:13;;;;;;;;;;;24.50;51.90;;;;;;1592971;73;1592;-73
2022/09/19 00:36:16;;;;;;;;;;;24.60;51.80;;;;;;1596864;73;1149;-72
2022/09/19 00:38:17;;;;;;;;;;;24.60;51.80;;;;;;1611138;73;1923;-72
2022/09/19 00:40:19;;;;;;;;;;;24.50;51.80;;;;;;1594939;73;737;-72
2022/09/19 00:42:22;;;;;;;;;;;24.60;51.80;;;;;;1593776;73;731;-72
2022/09/19 00:44:26;;;;;;;;;;;24.50;51.90;;;;;;1593486;73;1572;-71
2022/09/19 00:46:28;;;;;;;;;;;24.50;51.90;;;;;;1597824;73;1142;-72
2022/09/19 00:48:32;;;;;;;;;;;24.50;51.90;;;;;;1598778;73;733;-72
2022/09/19 00:50:33;;;;;;;;;;;24.50;51.90;;;;;;1591320;73;1621;-72
2022/09/19 00:52:37;;;;;;;;;;;24.50;51.90;;;;;;1598341;73;764;-71
2022/09/19 00:54:40;;;;;;;;;;;24.50;51.90;;;;;;1593881;73;1021;-72
2022/09/19 00:56:43;;;;;;;;;;;24.50;51.80;;;;;;1598734;73;1210;-71
2022/09/19 00:58:45;;;;;;;;;;;24.50;51.90;;;;;;1590249;73;1936;-71
2022/09/19 01:00:47;;;;;;;;;;;24.50;51.90;;;;;;1595092;73;767;-69
2022/09/19 01:02:49;;;;;;;;;;;24.50;51.90;;;;;;1597842;73;744;-74
2022/09/19 01:04:51;;;;;;;;;;;24.50;51.90;;;;;;1600705;73;802;-72
2022/09/19 01:06:58;;;;;;;;;;;24.50;51.90;;;;;;1596639;72;1129;-74
2022/09/19 01:09:01;;;;;;;;;;;24.50;52.00;;;;;;1587591;73;776;-70
2022/09/19 01:11:09;;;;;;;;;;;24.50;51.90;;;;;;1594718;73;785;-71
2022/09/19 01:13:15;;;;;;;;;;;24.50;51.90;;;;;;1583386;73;2026;-71
2022/09/19 01:15:23;;;;;;;;;;;24.50;51.90;;;;;;1582168;73;1141;-71
2022/09/19 01:17:28;;;;;;;;;;;24.50;52.00;;;;;;1599248;73;1924;-71
2022/09/19 01:19:35;;;;;;;;;;;24.50;52.00;;;;;;1598551;73;727;-69
2022/09/19 01:21:41;;;;;;;;;;;24.40;51.90;;;;;;1594438;73;1673;-70
2022/09/19 01:24:01;;;;;;;;;;;24.40;51.90;;;;;;1592089;73;1048;-71
2022/09/19 01:26:06;;;;;;;;;;;24.40;51.80;;;;;;1591374;73;1572;-71
2022/09/19 01:28:18;;;;;;;;;;;24.50;51.90;;;;;;1593935;73;964;-70
2022/09/19 01:30:19;;;;;;;;;;;24.40;51.80;;;;;;1594970;73;1607;-70
2022/09/19 01:32:22;;;;;;;;;;;24.40;51.80;;;;;;1595409;73;786;-71
2022/09/19 01:34:32;;;;;;;;;;;24.40;51.80;;;;;;1597008;73;694;-70
2022/09/19 01:36:35;;;;;;;;;;;24.50;51.90;;;;;;1592003;73;1165;-71
2022/09/19 01:38:38;;;;;;;;;;;24.50;52.00;;;;;;1593561;73;1936;-70
2022/09/19 01:40:39;;;;;;;;;;;24.50;51.90;;;;;;1583810;73;1543;-71
2022/09/19 01:42:48;;;;;;;;;;;24.50;51.90;;;;;;1575313;74;687;-71
2022/09/19 01:44:52;;;;;;;;;;;24.50;51.90;;;;;;1585437;73;725;-71
2022/09/19 01:47:08;;;;;;;;;;;24.50;51.90;;;;;;1593290;73;1080;-70
2022/09/19 01:49:12;;;;;;;;;;;24.40;51.80;;;;;;1590876;73;755;-72
2022/09/19 01:51:17;;;;;;;;;;;24.40;51.80;;;;;;1603519;73;1933;-71
2022/09/19 01:53:39;;;;;;;;;;;24.50;51.90;;;;;;1594276;73;895;-71
2022/09/19 01:55:42;;;;;;;;;;;24.50;51.90;;;;;;1586861;73;1147;-72
2022/09/19 01:58:04;;;;;;;;;;;24.40;51.80;;;;;;1590113;73;1939;-71
2022/09/19 02:00:10;;;;;;;;;;;24.40;51.80;;;;;;1595471;73;1060;-71
2022/09/19 02:02:17;;;;;;;;;;;24.40;51.80;;;;;;1595931;73;740;-71
2022/09/19 02:04:24;;;;;;;;;;;24.40;51.80;;;;;;1596008;73;1082;-70
2022/09/19 02:06:42;;;;;;;;;;;24.40;51.90;;;;;;1598119;73;1836;-70
2022/09/19 02:09:00;;;;;;;;;;;24.40;51.80;;;;;;1588732;73;1643;-69
2022/09/19 02:11:09;;;;;;;;;;;24.40;51.80;;;;;;1589350;73;1807;-72
2022/09/19 02:13:10;;;;;;;;;;;24.40;51.80;;;;;;1601895;73;1082;-69
2022/09/19 02:15:12;;;;;;;;;;;24.40;51.80;;;;;;1587611;73;1192;-70
2022/09/19 02:17:14;;;;;;;;;;;24.40;51.80;;;;;;1593914;73;774;-70
2022/09/19 02:19:21;;;;;;;;;;;24.40;51.80;;;;;;1596720;73;1933;-70
2022/09/19 02:21:37;;;;;;;;;;;24.40;51.80;;;;;;1597750;73;1027;-71
2022/09/19 02:23:38;;;;;;;;;;;24.40;51.80;;;;;;1591599;73;1632;-66
2022/09/19 02:25:42;;;;;;;;;;;24.40;51.80;;;;;;1598455;73;1162;-68
2022/09/19 02:27:49;;;;;;;;;;;24.40;51.80;;;;;;1593774;73;895;-66
2022/09/19 02:29:50;;;;;;;;;;;24.40;51.80;;;;;;1581982;73;1839;-66
2022/09/19 02:31:53;;;;;;;;;;;24.50;51.80;;;;;;1593460;73;1828;-64
2022/09/19 02:33:55;;;;;;;;;;;24.50;51.80;;;;;;1600773;73;768;-65
2022/09/19 02:36:01;;;;;;;;;;;24.50;51.70;;;;;;1602059;73;1541;-66
2022/09/19 02:38:05;;;;;;;;;;;24.50;51.60;;;;;;1599240;73;1938;-66
2022/09/19 02:40:08;;;;;;;;;;;24.60;51.50;;;;;;1590631;73;1783;-67
2022/09/19 02:42:12;;;;;;;;;;;24.50;51.50;;;;;;1590310;73;727;-67
2022/09/19 02:44:19;;;;;;;;;;;24.60;51.50;;;;;;1597770;73;720;-66
2022/09/19 02:46:28;;;;;;;;;;;24.60;51.40;;;;;;1595577;73;1623;-66
2022/09/19 02:48:39;;;;;;;;;;;24.60;51.40;;;;;;1592559;73;1647;-67
2022/09/19 02:50:59;;;;;;;;;;;24.70;51.40;;;;;;1586543;73;2007;-68
2022/09/19 02:53:02;;;;;;;;;;;24.80;51.30;;;;;;1596259;73;655;-63
2022/09/19 02:55:05;;;;;;;;;;;24.70;51.30;;;;;;1596367;73;1161;-68
2022/09/19 02:57:08;;;;;;;;;;;24.80;51.30;;;;;;1596154;73;714;-65
2022/09/19 02:59:21;;;;;;;;;;;24.90;51.30;;;;;;1600423;73;1944;-66
2022/09/19 03:01:23;;;;;;;;;;;24.90;51.30;;;;;;1600023;73;674;-67
2022/09/19 03:05:46;;;;;;;;;;;24.90;51.30;;;;;;1591433;73;1689;-69
2022/09/19 03:08:05;;;;;;;;;;;24.80;51.30;;;;;;1588162;73;791;-65
2022/09/19 03:10:13;;;;;;;;;;;24.80;51.40;;;;;;1585494;73;705;-66
2022/09/19 03:12:23;;;;;;;;;;;24.70;51.60;;;;;;1596259;73;795;-66
2022/09/19 03:14:24;;;;;;;;;;;24.60;51.70;;;;;;1594703;73;726;-66
2022/09/19 03:16:28;;;;;;;;;;;24.60;51.80;;;;;;1598797;73;1138;-67
2022/09/19 03:18:30;;;;;;;;;;;24.60;52.00;;;;;;1594370;73;1946;-63
2022/09/19 03:20:33;;;;;;;;;;;24.50;52.20;;;;;;1585212;73;682;-67
2022/09/19 03:22:35;;;;;;;;;;;24.50;52.30;;;;;;1595197;73;1965;-66
2022/09/19 03:24:38;;;;;;;;;;;24.50;52.50;;;;;;1598310;73;705;-65
2022/09/19 03:26:40;;;;;;;;;;;24.50;52.60;;;;;;1599381;73;1155;-67
2022/09/19 03:28:41;;;;;;;;;;;24.50;52.70;;;;;;1584574;73;773;-65
2022/09/19 03:30:43;;;;;;;;;;;24.40;52.60;;;;;;1598675;73;750;-67
2022/09/19 03:32:45;;;;;;;;;;;24.50;52.70;;;;;;1596061;73;1320;-67
2022/09/19 03:34:47;;;;;;;;;;;24.50;52.60;;;;;;1601285;73;729;-65
2022/09/19 03:36:49;;;;;;;;;;;24.50;52.60;;;;;;1590702;73;1083;-67
2022/09/19 03:38:51;;;;;;;;;;;24.60;52.60;;;;;;1594359;73;1939;-66
2022/09/19 03:40:53;;;;;;;;;;;24.50;52.60;;;;;;1598514;73;784;-66
2022/09/19 03:42:55;;;;;;;;;;;24.50;52.60;;;;;;1593930;73;790;-65
2022/09/19 03:44:57;;;;;;;;;;;24.50;52.60;;;;;;1598089;73;736;-65
2022/09/19 03:46:59;;;;;;;;;;;24.60;52.20;;;;;;1595742;73;1591;-66
2022/09/19 03:49:02;;;;;;;;;;;24.70;52.00;;;;;;1596072;73;709;-71
2022/09/19 03:51:04;;;;;;;;;;;24.70;51.90;;;;;;1599610;73;877;-69
2022/09/19 03:53:07;;;;;;;;;;;24.80;51.70;;;;;;1597917;73;775;-73
2022/09/19 03:55:08;;;;;;;;;;;24.70;51.80;;;;;;1598386;73;1147;-73
2022/09/19 03:57:11;;;;;;;;;;;24.80;51.30;;;;;;1593411;73;773;-73
2022/09/19 03:59:13;;;;;;;;;;;25.00;51.20;;;;;;1592172;73;1921;-74
2022/09/19 04:01:15;;;;;;;;;;;24.90;51.00;;;;;;1599605;73;1324;-73
2022/09/19 04:03:22;;;;;;;;;;;24.90;50.80;;;;;;1591517;73;743;-73
2022/09/19 04:05:23;;;;;;;;;;;25.00;50.70;;;;;;1590763;73;1965;-72
2022/09/19 04:07:27;;;;;;;;;;;25.00;50.80;;;;;;1594790;73;776;-74
2022/09/19 04:09:29;;;;;;;;;;;24.90;50.80;;;;;;1598205;73;851;-72
2022/09/19 04:11:30;;;;;;;;;;;24.90;50.80;;;;;;1594873;73;717;-72
2022/09/19 04:13:33;;;;;;;;;;;24.80;50.70;;;;;;1592469;73;783;-72
2022/09/19 04:15:35;;;;;;;;;;;24.80;50.70;;;;;;1600715;73;1519;-72
2022/09/19 04:17:37;;;;;;;;;;;24.90;50.90;;;;;;1595189;73;777;-72
2022/09/19 04:19:39;;;;;;;;;;;24.80;50.70;;;;;;1594881;73;1935;-72
2022/09/19 04:21:44;;;;;;;;;;;24.90;50.70;;;;;;1599659;73;750;-73
2022/09/19 04:23:45;;;;;;;;;;;24.80;50.70;;;;;;1596641;73;741;-72
2022/09/19 04:25:47;;;;;;;;;;;24.80;50.70;;;;;;1596776;73;1138;-72
2022/09/19 04:27:52;;;;;;;;;;;24.80;50.70;;;;;;1594610;73;781;-71
2022/09/19 04:29:53;;;;;;;;;;;24.80;50.80;;;;;;1584726;73;1635;-72
2022/09/19 04:31:55;;;;;;;;;;;24.80;50.80;;;;;;1602724;73;785;-70
2022/09/19 04:33:57;;;;;;;;;;;24.80;50.90;;;;;;1597355;73;781;-73
2022/09/19 04:35:59;;;;;;;;;;;24.90;50.80;;;;;;1595620;73;1153;-73
2022/09/19 04:38:02;;;;;;;;;;;24.80;50.70;;;;;;1598777;73;640;-73
2022/09/19 04:40:04;;;;;;;;;;;24.90;50.70;;;;;;1595627;73;1930;-74
2022/09/19 04:42:06;;;;;;;;;;;24.80;50.60;;;;;;1603678;73;723;-70
2022/09/19 04:44:08;;;;;;;;;;;24.90;50.60;;;;;;1596703;73;1553;-71
2022/09/19 04:46:10;;;;;;;;;;;24.90;50.30;;;;;;1597071;73;1152;-72
2022/09/19 04:48:12;;;;;;;;;;;25.00;50.30;;;;;;1594428;73;857;-72
2022/09/19 04:50:14;;;;;;;;;;;25.10;50.20;;;;;;1594960;73;768;-73
2022/09/19 04:52:16;;;;;;;;;;;25.00;50.00;;;;;;1592128;73;756;-74
2022/09/19 04:54:19;;;;;;;;;;;25.10;50.00;;;;;;1598727;73;741;-74
2022/09/19 04:56:21;;;;;;;;;;;25.10;49.90;;;;;;1590762;73;1352;-75
2022/09/19 04:58:23;;;;;;;;;;;25.10;49.80;;;;;;1593989;73;1929;-76
2022/09/19 05:00:38;;;;;;;;;;;25.10;49.80;;;;;;1592150;73;795;-74
2022/09/19 05:02:40;;;;;;;;;;;25.10;49.70;;;;;;1597692;73;832;-77
2022/09/19 05:04:44;;;;;;;;;;;25.20;49.70;;;;;;1587770;73;726;-73
2022/09/19 05:06:45;;;;;;;;;;;25.10;49.70;;;;;;1595099;73;1165;-77
2022/09/19 05:08:47;;;;;;;;;;;25.10;49.70;;;;;;1591777;73;717;-73
2022/09/19 05:10:49;;;;;;;;;;;25.10;50.20;;;;;;1590394;73;1490;-74
2022/09/19 05:12:51;;;;;;;;;;;25.00;50.50;;;;;;1602544;73;661;-73
2022/09/19 05:14:53;;;;;;;;;;;24.80;50.70;;;;;;1591135;74;799;-74
2022/09/19 05:16:55;;;;;;;;;;;25.00;50.60;;;;;;1604540;73;1094;-76
2022/09/19 05:18:56;;;;;;;;;;;25.10;50.20;;;;;;1601677;73;1939;-72
2022/09/19 05:21:01;;;;;;;;;;;25.00;50.20;;;;;;1589234;73;724;-73
2022/09/19 05:23:03;;;;;;;;;;;25.00;50.30;;;;;;1601076;73;767;-73
2022/09/19 05:25:05;;;;;;;;;;;24.90;50.40;;;;;;1597824;73;1351;-72
2022/09/19 05:27:06;;;;;;;;;;;24.90;50.50;;;;;;1580826;70;2224;-66
2022/09/19 05:29:10;;;;;;;;;;;24.90;50.50;;;;;;1575234;74;685;-67
2022/09/19 05:31:12;;;;;;;;;;;25.00;50.40;;;;;;1585512;74;759;-69
2022/09/19 05:33:14;;;;;;;;;;;25.00;50.20;;;;;;1594205;74;883;-66
2022/09/19 05:35:16;;;;;;;;;;;25.10;50.10;;;;;;1589268;74;735;-67
2022/09/19 05:37:18;;;;;;;;;;;25.00;50.10;;;;;;1597069;74;1174;-67
2022/09/19 05:39:20;;;;;;;;;;;24.90;50.50;;;;;;1583555;74;1942;-64
2022/09/19 05:41:22;;;;;;;;;;;25.00;50.50;;;;;;1584417;74;696;-63
2022/09/19 05:43:24;;;;;;;;;;;25.10;50.20;;;;;;1583791;74;797;-64
2022/09/19 05:45:25;;;;;;;;;;;25.00;50.00;;;;;;1593358;74;814;-65
2022/09/19 05:47:28;;;;;;;;;;;24.90;50.10;;;;;;1590976;74;1092;-65
2022/09/19 05:49:30;;;;;;;;;;;25.00;50.20;;;;;;1561111;75;735;-68
2022/09/19 05:51:32;;;;;;;;;;;24.80;50.20;;;;;;1601147;74;743;-65
2022/09/19 05:53:52;;;;;;;;;;;24.80;50.30;;;;;;1591918;74;1652;-65
2022/09/19 05:55:54;;;;;;;;;;;24.80;50.30;;;;;;1596151;74;1089;-65
2022/09/19 05:57:57;;;;;;;;;;;24.70;50.40;;;;;;1593333;74;631;-65
2022/09/19 05:59:59;;;;;;;;;;;24.70;50.50;;;;;;1591262;74;1930;-65
2022/09/19 06:02:01;;;;;;;;;;;24.60;50.30;;;;;;1592820;74;821;-65
2022/09/19 06:04:02;;;;;;;;;;;24.60;50.50;;;;;;1587334;74;776;-67
2022/09/19 06:06:18;;;;;;;;;;;24.70;50.60;;;;;;1587291;74;1136;-65
2022/09/19 06:08:25;;;;;;;;;;;24.70;50.60;;;;;;1586321;74;1668;-65
2022/09/19 06:10:24;;;;;;;;;;;24.60;50.50;;;;;;1586861;74;1379;-65
2022/09/19 06:12:26;;;;;;;;;;;24.60;50.50;;;;;;1600338;74;743;-65
2022/09/19 06:14:28;;;;;;;;;;;24.60;50.50;;;;;;1586608;74;659;-65
2022/09/19 06:16:30;;;;;;;;;;;24.60;50.50;;;;;;1584153;74;1163;-65
2022/09/19 06:18:32;;;;;;;;;;;24.50;50.50;;;;;;1598274;74;663;-66
2022/09/19 06:20:34;;;;;;;;;;;24.50;50.50;;;;;;1598443;74;1949;-67
2022/09/19 06:22:36;;;;;;;;;;;24.50;50.50;;;;;;1598392;74;1759;-65
2022/09/19 06:24:37;;;;;;;;;;;24.60;50.50;;;;;;1599953;74;747;-65
2022/09/19 06:26:39;;;;;;;;;;;24.60;50.50;;;;;;1599062;74;1127;-65
2022/09/19 06:28:42;;;;;;;;;;;24.50;50.50;;;;;;1598276;74;598;-65
2022/09/19 06:30:43;;;;;;;;;;;24.50;50.40;;;;;;1588847;74;729;-65
2022/09/19 06:32:45;;;;;;;;;;;24.60;50.40;;;;;;1581295;74;838;-65
2022/09/19 06:34:47;;;;;;;;;;;24.60;50.40;;;;;;1594121;74;1442;-65
2022/09/19 06:36:49;;;;;;;;;;;24.70;50.50;;;;;;1585124;74;1136;-67
2022/09/19 06:38:51;;;;;;;;;;;24.70;50.50;;;;;;1603174;74;1902;-67
2022/09/19 06:40:53;;;;;;;;;;;24.60;50.30;;;;;;1587463;74;779;-67
2022/09/19 06:43:01;;;;;;;;;;;24.60;50.40;;;;;;1590191;74;717;-65
2022/09/19 06:45:06;;;;;;;;;;;24.70;50.50;;;;;;1585337;74;714;-65
2022/09/19 06:47:07;;;;;;;;;;;24.70;50.50;;;;;;1597207;74;1134;-65
2022/09/19 06:49:09;;;;;;;;;;;24.60;50.30;;;;;;1598409;74;1551;-65
2022/09/19 06:51:13;;;;;;;;;;;24.60;50.30;;;;;;1600722;74;710;-65
2022/09/19 06:53:15;;;;;;;;;;;24.60;50.30;;;;;;1598286;74;2024;-66
2022/09/19 06:55:17;;;;;;;;;;;24.60;50.30;;;;;;1582835;74;766;-65
2022/09/19 06:57:19;;;;;;;;;;;24.70;50.40;;;;;;1593381;74;1065;-67
2022/09/19 06:59:21;;;;;;;;;;;24.60;50.30;;;;;;1584661;74;1931;-67
2022/09/19 07:01:23;;;;;;;;;;;24.60;50.20;;;;;;1597527;74;727;-66
2022/09/19 07:03:25;;;;;;;;;;;24.70;50.50;;;;;;1588351;74;1547;-67
2022/09/19 07:05:27;;;;;;;;;;;24.60;50.30;;;;;;1599245;74;748;-65
2022/09/19 07:07:30;;;;;;;;;;;24.60;50.20;;;;;;1593679;74;1119;-65
2022/09/19 07:09:32;;;;;;;;;;;24.60;50.20;;;;;;1594790;74;832;-65
2022/09/19 07:11:36;;;;;;;;;;;24.60;50.20;;;;;;1602385;74;723;-65
2022/09/19 07:13:38;;;;;;;;;;;24.70;50.30;;;;;;1599268;74;787;-65
2022/09/19 07:15:39;;;;;;;;;;;24.70;50.30;;;;;;1601695;74;1174;-65
2022/09/19 07:17:41;;;;;;;;;;;24.70;50.40;;;;;;1597527;74;1552;-65
2022/09/19 07:19:44;;;;;;;;;;;24.70;50.40;;;;;;1599642;74;1938;-67
2022/09/19 07:21:46;;;;;;;;;;;24.60;50.20;;;;;;1601012;74;644;-67
2022/09/19 07:23:49;;;;;;;;;;;24.60;50.20;;;;;;1599842;74;763;-67
2022/09/19 07:25:51;;;;;;;;;;;24.60;50.20;;;;;;1601487;74;1143;-69
2022/09/19 07:28:03;;;;;;;;;;;24.50;50.30;;;;;;1594942;74;801;-69
2022/09/19 07:30:05;;;;;;;;;;;24.50;50.30;;;;;;1598932;74;711;-67
2022/09/19 07:32:08;;;;;;;;;;;24.60;50.30;;;;;;1596861;74;1502;-68
2022/09/19 07:34:10;;;;;;;;;;;24.50;50.30;;;;;;1597343;73;751;-68
2022/09/19 07:36:12;;;;;;;;;;;24.60;50.20;;;;;;1599762;74;1151;-68
2022/09/19 07:38:15;;;;;;;;;;;24.60;50.20;;;;;;1596221;74;775;-68
2022/09/19 07:40:17;;;;;;;;;;;24.60;50.20;;;;;;1596515;74;1903;-68
2022/09/19 07:42:20;;;;;;;;;;;24.60;50.30;;;;;;1598341;74;735;-68
2022/09/19 07:44:22;;;;;;;;;;;24.60;50.20;;;;;;1598787;74;795;-68
2022/09/19 07:46:25;;;;;;;;;;;24.50;50.30;;;;;;1599068;74;1541;-67
2022/09/19 07:48:26;;;;;;;;;;;24.70;50.40;;;;;;1593669;74;726;-65
2022/09/19 07:50:28;;;;;;;;;;;24.60;50.20;;;;;;1596114;74;788;-68
2022/09/19 07:52:30;;;;;;;;;;;24.70;50.30;;;;;;1600318;74;849;-67
2022/09/19 07:54:33;;;;;;;;;;;24.60;50.20;;;;;;1599471;74;717;-68
2022/09/19 07:56:34;;;;;;;;;;;24.70;50.20;;;;;;1600501;74;1130;-68
2022/09/19 07:58:36;;;;;;;;;;;24.70;50.10;;;;;;1597401;74;790;-68
2022/09/19 08:00:38;;;;;;;;;;;24.80;50.00;;;;;;1580023;74;1934;-68
2022/09/19 08:02:40;;;;;;;;;;;24.80;49.80;;;;;;1597176;74;855;-68
2022/09/19 08:04:42;;;;;;;;;;;24.60;49.40;;;;;;1597617;74;635;-69
2022/09/19 08:06:44;;;;;;;;;;;24.60;49.00;;;;;;1595328;74;1134;-68
2022/09/19 08:08:46;;;;;;;;;;;24.50;49.00;;;;;;1598924;74;758;-71
2022/09/19 08:10:48;;;;;;;;;;;24.50;49.00;;;;;;1591282;74;775;-68
2022/09/19 08:12:50;;;;;;;;;;;24.50;48.60;;;;;;1597480;74;804;-69
2022/09/19 08:14:53;;;;;;;;;;;24.50;48.60;;;;;;1590105;74;1485;-68
2022/09/19 08:16:56;;;;;;;;;;;24.50;48.50;;;;;;1589397;73;1205;-69
2022/09/19 08:18:58;;;;;;;;;;;24.40;48.20;;;;;;1593810;74;824;-68
2022/09/19 08:21:00;;;;;;;;;;;24.40;48.20;;;;;;1589419;74;1913;-68
2022/09/19 08:23:03;;;;;;;;;;;24.40;48.10;;;;;;1582355;74;762;-68
2022/09/19 08:25:05;;;;;;;;;;;24.40;48.00;;;;;;1594593;74;726;-68
2022/09/19 08:27:08;;;;;;;;;;;24.30;48.00;;;;;;1591083;74;1112;-68
2022/09/19 08:29:10;;;;;;;;;;;24.30;48.00;;;;;;1595862;74;1874;-69
2022/09/19 08:31:12;;;;;;;;;;;24.30;47.90;;;;;;1576129;74;761;-68
2022/09/19 08:33:14;;;;;;;;;;;24.30;47.90;;;;;;1583086;74;798;-69
2022/09/19 08:35:18;;;;;;;;;;;24.30;47.50;;;;;;1598981;74;719;-69
2022/09/19 08:37:20;;;;;;;;;;;24.40;47.40;;;;;;1595561;74;1124;-68
2022/09/19 08:39:22;;;;;;;;;;;24.30;47.60;;;;;;1595255;74;763;-68
2022/09/19 08:41:37;;;;;;;;;;;24.30;47.30;;;;;;1589380;74;1943;-68
2022/09/19 08:43:41;;;;;;;;;;;24.40;47.30;;;;;;1593492;74;1635;-68
2022/09/19 08:46:01;;;;;;;;;;;24.40;47.30;;;;;;1584332;74;1882;-68
2022/09/19 08:48:05;;;;;;;;;;;24.30;47.20;;;;;;1596146;74;768;-65
2022/09/19 08:50:11;;;;;;;;;;;24.30;46.90;;;;;;1603862;74;700;-66
2022/09/19 08:52:22;;;;;;;;;;;24.20;46.90;;;;;;1599990;74;793;-66
2022/09/19 08:54:25;;;;;;;;;;;24.30;46.90;;;;;;1584050;74;764;-67
2022/09/19 08:56:28;;;;;;;;;;;24.30;46.90;;;;;;1601293;74;1515;-67
2022/09/19 08:58:30;;;;;;;;;;;24.30;46.90;;;;;;1589386;74;721;-65
2022/09/19 09:00:42;;;;;;;;;;;24.30;46.90;;;;;;1601120;74;1946;-71
2022/09/19 09:02:51;;;;;;;;;;;24.30;46.80;;;;;;1594106;74;752;-66
2022/09/19 09:04:54;;;;;;;;;;;24.20;46.50;;;;;;1599501;74;735;-66
2022/09/19 09:06:58;;;;;;;;;;;24.20;46.60;;;;;;1583557;73;1138;-66
2022/09/19 09:09:01;;;;;;;;;;;24.20;46.50;;;;;;1598206;74;822;-65
2022/09/19 09:11:22;;;;;;;;;;;24.20;46.50;;;;;;1597474;74;1811;-68
2022/09/19 09:13:43;;;;;;;;;;;24.20;46.30;;;;;;1586237;74;649;-66
2022/09/19 09:15:58;;;;;;;;;;;24.20;46.30;;;;;;1590713;74;1125;-66
2022/09/19 09:18:18;;;;;;;;;;;24.20;46.20;;;;;;1597373;74;731;-66
2022/09/19 09:20:24;;;;;;;;;;;24.20;46.20;;;;;;1597593;74;1899;-65
2022/09/19 09:22:29;;;;;;;;;;;24.30;46.30;;;;;;1601568;74;2089;-66
2022/09/19 09:24:36;;;;;;;;;;;24.30;46.30;;;;;;1593391;74;1515;-64
2022/09/19 09:26:40;;;;;;;;;;;24.30;46.20;;;;;;1585351;74;1153;-64
2022/09/19 09:28:43;;;;;;;;;;;24.20;46.10;;;;;;1597344;74;1973;-62
2022/09/19 09:30:47;;;;;;;;;;;24.20;46.10;;;;;;1600005;74;721;-66
2022/09/19 09:32:50;;;;;;;;;;;24.20;45.80;;;;;;1595501;74;782;-62
2022/09/19 09:34:54;;;;;;;;;;;24.20;45.70;;;;;;1597234;74;1938;-64
2022/09/19 09:36:58;;;;;;;;;;;24.20;45.70;;;;;;1588666;74;1145;-68
2022/09/19 09:39:02;;;;;;;;;;;24.20;45.40;;;;;;1583777;74;1691;-65
2022/09/19 09:43:30;;;;;;;;;;;24.10;45.50;;;;;;1585625;74;1631;-64
2022/09/19 09:45:34;;;;;;;;;;;24.20;45.50;;;;;;1553582;75;851;-65
2022/09/19 09:47:44;;;;;;;;;;;24.10;45.50;;;;;;1593818;74;1075;-65
2022/09/19 09:49:46;;;;;;;;;;;24.10;45.50;;;;;;1601806;74;1982;-64
2022/09/19 09:51:52;;;;;;;;;;;24.20;45.50;;;;;;1593914;74;1522;-62
2022/09/19 09:54:02;;;;;;;;;;;24.20;45.40;;;;;;1589265;74;785;-63
2022/09/19 09:56:22;;;;;;;;;;;24.20;45.20;;;;;;1591430;74;1150;-64
2022/09/19 09:58:26;;;;;;;;;;;24.20;45.20;;;;;;1586921;74;811;-64
2022/09/19 10:05:25;;;;;;;;;;;24.30;45.20;;;;;;1600005;74;1702;-65
2022/09/19 10:07:34;;;;;;;;;;;24.20;45.10;;;;;;1586407;74;1525;-64
2022/09/19 10:09:36;;;;;;;;;;;24.30;44.80;;;;;;1598046;74;799;-64
2022/09/19 10:11:40;;;;;;;;;;;24.20;45.20;;;;;;1602445;74;800;-63
2022/09/19 10:13:51;;;;;;;;;;;24.20;45.20;;;;;;1592306;74;1125;-63
2022/09/19 10:15:54;;;;;;;;;;;24.20;45.20;;;;;;1590102;74;1152;-64
2022/09/19 10:18:00;;;;;;;;;;;24.10;44.40;;;;;;1599056;74;1796;-63
2022/09/19 10:20:02;;;;;;;;;;;24.10;44.80;;;;;;1598135;74;1532;-66
2022/09/19 10:22:05;;;;;;;;;;;24.10;44.80;;;;;;1589153;74;1922;-65
2022/09/19 10:24:25;;;;;;;;;;;24.20;45.00;;;;;;1591146;74;634;-64
2022/09/19 10:26:27;;;;;;;;;;;24.10;44.80;;;;;;1598800;74;1138;-63
2022/09/19 10:28:43;;;;;;;;;;;24.10;44.90;;;;;;1601532;74;811;-64
2022/09/19 10:30:44;;;;;;;;;;;24.00;44.70;;;;;;1582676;74;1675;-65
2022/09/19 10:32:47;;;;;;;;;;;24.00;44.70;;;;;;1586511;74;1109;-67
2022/09/19 10:34:50;;;;;;;;;;;24.00;44.60;;;;;;1587987;74;1540;-64
2022/09/19 10:36:52;;;;;;;;;;;24.00;44.60;;;;;;1590109;74;1106;-66
2022/09/19 10:39:00;;;;;;;;;;;24.00;44.60;;;;;;1582165;74;713;-63
2022/09/19 10:41:02;;;;;;;;;;;24.00;44.30;;;;;;1594997;74;1910;-64
2022/09/19 10:43:04;;;;;;;;;;;24.00;43.80;;;;;;1583477;74;709;-64
2022/09/19 10:45:16;;;;;;;;;;;24.00;43.80;;;;;;1585703;74;771;-63
2022/09/19 10:47:18;;;;;;;;;;;24.00;43.70;;;;;;1601865;73;1787;-64
2022/09/19 10:49:22;;;;;;;;;;;24.00;43.80;;;;;;1591131;74;1580;-64
2022/09/19 10:51:27;;;;;;;;;;;23.90;43.50;;;;;;1601871;74;847;-64
2022/09/19 10:53:32;;;;;;;;;;;23.90;42.30;;;;;;1595531;74;1524;-64
2022/09/19 10:55:35;;;;;;;;;;;23.90;43.20;;;;;;1592244;74;791;-64
2022/09/19 10:57:44;;;;;;;;;;;23.90;43.40;;;;;;1597668;74;1134;-64
2022/09/19 10:59:46;;;;;;;;;;;23.90;43.40;;;;;;1597752;74;1577;-64
2022/09/19 11:02:06;;;;;;;;;;;23.90;43.60;;;;;;1600239;74;1933;-64
2022/09/19 11:04:15;;;;;;;;;;;24.00;43.20;;;;;;1600887;74;779;-64
2022/09/19 11:06:18;;;;;;;;;;;24.00;43.30;;;;;;1598489;74;1240;-63
2022/09/19 11:08:24;;;;;;;;;;;23.90;43.30;;;;;;1600871;74;734;-64
2022/09/19 11:10:37;;;;;;;;;;;23.90;41.60;;;;;;1599951;74;1586;-68
2022/09/19 11:12:41;;;;;;;;;;;24.00;43.00;;;;;;1597689;74;714;-64
2022/09/19 11:14:49;;;;;;;;;;;23.90;42.80;;;;;;1597002;74;2030;-66
2022/09/19 11:17:09;;;;;;;;;;;23.90;42.80;;;;;;1602209;74;1572;-64
2022/09/19 11:19:26;;;;;;;;;;;23.90;42.60;;;;;;1597886;74;724;-63
2022/09/19 11:21:47;;;;;;;;;;;23.90;42.40;;;;;;1575295;74;1910;-63
2022/09/19 11:23:59;;;;;;;;;;;23.90;42.30;;;;;;1589609;74;708;-63
2022/09/19 11:26:20;;;;;;;;;;;24.00;42.50;;;;;;1596173;74;1874;-66
2022/09/19 11:28:43;;;;;;;;;;;24.00;42.30;;;;;;1541886;75;674;-58
2022/09/19 11:30:48;;;;;;;;;;;23.90;42.30;;;;;;1541171;75;1683;-58
2022/09/19 11:33:01;;;;;;;;;;;23.90;42.10;;;;;;1516734;75;1667;-57
2022/09/19 11:35:10;;;;;;;;;;;23.90;42.10;;;;;;1534674;75;1212;-57
2022/09/19 11:37:13;;;;;;;;;;;23.90;40.30;;;;;;1535193;75;844;-59
2022/09/19 11:39:23;;;;;;;;;;;23.90;40.50;;;;;;1538699;77;1991;-58
2022/09/19 11:41:26;;;;;;;;;;;23.80;41.70;;;;;;1538510;76;1936;-57
2022/09/19 11:43:48;;;;;;;;;;;23.70;41.70;;;;;;1540523;77;785;-58
2022/09/19 11:45:51;;;;;;;;;;;23.90;41.60;;;;;;1542485;76;1666;-57
2022/09/19 11:47:59;;;;;;;;;;;23.80;41.50;;;;;;1536280;75;1857;-59
2022/09/19 11:50:03;;;;;;;;;;;23.90;41.70;;;;;;1531794;77;1631;-58
2022/09/19 11:52:06;;;;;;;;;;;23.90;41.70;;;;;;1540269;77;1654;-59
2022/09/19 11:54:15;;;;;;;;;;;23.90;41.40;;;;;;1536825;77;1106;-57
2022/09/19 11:56:35;;;;;;;;;;;23.90;40.90;;;;;;1537468;76;1051;-58
2022/09/19 11:58:39;;;;;;;;;;;23.90;40.90;;;;;;1536724;76;1706;-57
2022/09/19 12:00:45;;;;;;;;;;;23.90;40.90;;;;;;1534635;76;1934;-57
2022/09/19 12:02:49;;;;;;;;;;;23.90;41.00;;;;;;1535370;75;1834;-59
2022/09/19 12:04:52;;;;;;;;;;;23.80;40.70;;;;;;1527589;75;1123;-58
2022/09/19 12:06:56;;;;;;;;;;;23.80;41.00;;;;;;1529927;76;794;-58
2022/09/19 12:09:14;;;;;;;;;;;23.80;40.70;;;;;;1534864;75;808;-59
2022/09/19 12:11:19;;;;;;;;;;;23.80;39.20;;;;;;1545137;75;735;-57
2022/09/19 12:13:24;;;;;;;;;;;23.80;40.50;;;;;;1538760;76;1636;-57
2022/09/19 12:15:27;;;;;;;;;;;23.80;40.50;;;;;;1540780;75;1140;-59
2022/09/19 12:17:29;;;;;;;;;;;23.80;38.60;;;;;;1541081;76;645;-59
2022/09/19 12:19:33;;;;;;;;;;;23.80;40.00;;;;;;1540258;76;755;-58
2022/09/19 12:21:37;;;;;;;;;;;23.70;40.20;;;;;;1537244;77;1926;-58
2022/09/19 12:26:05;;;;;;;;;;;23.80;39.90;;;;;;1538414;76;1672;-59
2022/09/19 12:28:10;;;;;;;;;;;23.80;40.00;;;;;;1539634;76;1780;-58
2022/09/19 12:30:15;;;;;;;;;;;23.80;40.00;;;;;;1533704;77;935;-57
2022/09/19 12:32:25;;;;;;;;;;;23.80;40.20;;;;;;1539898;75;713;-59
2022/09/19 12:34:32;;;;;;;;;;;23.70;39.90;;;;;;1535875;77;1170;-58
2022/09/19 12:36:34;;;;;;;;;;;23.80;39.60;;;;;;1539694;75;1435;-59